Barnesville, OH (43713)

2:07 PM EDT on April 27, 2015 (GMT -0400)
Quaker City | | Change Station
CLOSE
Current Station
Personal Weather Station
Location: Quaker City, OH
Elevation: 1148 ft
Nearby Weather Stations

Elev 1148 ft 39.93 °N, 81.24 °W | Updated 6 seconds ago

Overcast
Overcast
46.6 °F
Feels Like 43 °F
N
7.2
Wind Variable Wind from WNW
Gusts 7.4 mph

Today
High -- | Low -- °F
--% Chance of Precip.
Yesterday
High -- | Low -- °F
Precip. -- in
6:30 AM 8:15 PM
Waxing Gibbous, 66% visible
Pressure 29.94 in
Visibility 10.0 miles
Clouds Scattered Clouds 1900 ft
Mostly Cloudy 2800 ft
Overcast 3700 ft
Windchill 43 °F
Dew Point 37 °F
Humidity 70%
Rainfall 0.00 in
Snow Depth Not available.
UV 1.0 out of 12
Pollen 9.70 out of 12
Air Quality Not available.
Flu Activity Regional
METAR KHLG 271753Z 29011KT 10SM SCT019 BKN028 OVC037 07/03 A2991 RMK AO2 RAE03B25E49 SLP137 P0000 60001 T00720028 10089 20033 51002

More Conditions Fewer Conditions

Pressure 29.94 in
Visibility 10.0 miles
Clouds Scattered Clouds 1900 ft
Mostly Cloudy 2800 ft
Overcast 3700 ft
Windchill 43 °F
Dew Point 37 °F
Humidity 70%
Rainfall 0.00 in
Snow Depth Not available.
UV 1.0 out of 12
Pollen 9.70 out of 12
Air Quality Not available.
Flu Activity Regional
METAR KHLG 271753Z 29011KT 10SM SCT019 BKN028 OVC037 07/03 A2991 RMK AO2 RAE03B25E49 SLP137 P0000 60001 T00720028 10089 20033 51002

More Conditions Fewer Conditions

10-Day Weather Forecast

Almanac

Astronomy

Apr. 27, 2015 Rise Set
Actual Time
Civil Twilight
Nautical Twilight
Astronomical Twilight
Moon
Length of Visible Light
Length of Day
Tomorrow will be .
, % of the Moon is Illuminated

Today's Extremes

State Highs State Lows

Community

WunderPhotos

Upload Photos

1,817,386 photos uploaded!

WunderBlogs® & News

Nearby

Air Quality

  Air Quality AQ Index Pollutant
Not available.

Snow Depth

Station Depth Elevation

Earthquake Activity

City Distance Mag. Time & Date
Minimum magnitude displayed is 2.5.

Coastal Water Temperatures

Place Temperature

Stations

Nearby Weather Stations

Station Location Temp. Windchill Dew Point Humidity Wind Precip. Elev Updated Type